createdAt,value
2018-07-24T00:00:47.208Z,62.58
2018-07-24T00:03:15.228Z,61.91
2018-07-24T00:05:43.285Z,62.56
2018-07-24T00:08:11.288Z,62.62
2018-07-24T00:10:39.279Z,63.00
2018-07-24T00:13:07.269Z,63.90
2018-07-24T00:15:35.272Z,64.01
2018-07-24T00:18:03.266Z,64.49
2018-07-24T00:20:31.235Z,64.17
2018-07-24T00:22:59.236Z,63.58
2018-07-24T00:25:27.239Z,64.02
2018-07-24T00:27:55.385Z,64.46
2018-07-24T00:30:23.398Z,63.70
2018-07-24T00:32:51.392Z,63.82
2018-07-24T00:35:19.411Z,63.81
2018-07-24T00:37:47.552Z,63.77
2018-07-24T00:40:15.624Z,63.17
2018-07-24T00:42:43.652Z,64.64
2018-07-24T00:45:11.665Z,65.28
2018-07-24T00:47:39.728Z,65.93
2018-07-24T00:50:07.683Z,64.52
2018-07-24T00:52:35.681Z,64.70
2018-07-24T00:55:03.687Z,63.64
2018-07-24T00:57:31.684Z,63.96
2018-07-24T00:59:59.763Z,64.71
2018-07-24T01:02:27.742Z,64.35
2018-07-24T01:04:55.740Z,64.14
2018-07-24T01:07:23.716Z,65.05
2018-07-24T01:09:51.711Z,65.18
2018-07-24T01:12:20.186Z,65.78
2018-07-24T01:14:48.172Z,65.83
2018-07-24T01:17:16.158Z,66.58
2018-07-24T01:19:44.152Z,66.23
2018-07-24T01:22:12.137Z,66.91
2018-07-24T01:24:42.252Z,66.39
2018-07-24T01:27:10.278Z,65.85
2018-07-24T01:29:38.264Z,66.37
2018-07-24T01:32:06.532Z,67.56
2018-07-24T01:34:34.537Z,68.85
2018-07-24T01:37:02.557Z,67.31
2018-07-24T01:39:30.574Z,67.53
2018-07-24T01:41:58.545Z,66.77
2018-07-24T01:44:26.540Z,66.48
2018-07-24T01:46:54.561Z,66.42
2018-07-24T01:49:22.572Z,66.42
2018-07-24T01:51:50.565Z,67.52
2018-07-24T01:54:18.563Z,68.97
2018-07-24T01:56:46.536Z,70.45
2018-07-24T01:59:14.520Z,70.23
2018-07-24T02:01:43.216Z,68.73
2018-07-24T02:04:11.292Z,68.63
2018-07-24T02:06:39.303Z,68.39
2018-07-24T02:09:08.352Z,67.75
2018-07-24T02:11:36.401Z,67.26
2018-07-24T02:14:04.385Z,67.07
2018-07-24T02:16:32.404Z,67.91
2018-07-24T02:19:00.637Z,67.33
2018-07-24T02:21:28.664Z,68.38
2018-07-24T02:23:56.660Z,67.68
2018-07-24T02:26:24.656Z,68.94
2018-07-24T02:28:52.736Z,69.43
2018-07-24T02:31:20.708Z,68.35
2018-07-24T02:33:48.721Z,67.74
2018-07-24T02:36:16.722Z,67.94
2018-07-24T02:38:44.737Z,68.63
2018-07-24T02:41:12.730Z,68.05
2018-07-24T02:43:40.720Z,68.80
2018-07-24T02:46:08.750Z,68.08
2018-07-24T02:48:36.747Z,67.64
2018-07-24T02:51:04.781Z,68.94
2018-07-24T02:53:32.805Z,68.48
2018-07-24T02:56:00.788Z,67.73
2018-07-24T02:58:28.772Z,67.77
2018-07-24T03:00:56.761Z,68.17
2018-07-24T03:03:24.773Z,68.38
2018-07-24T03:05:52.772Z,67.96
2018-07-24T03:08:20.990Z,66.91
2018-07-24T03:10:48.968Z,66.79
2018-07-24T03:13:16.965Z,67.11
2018-07-24T03:15:44.949Z,67.85
2018-07-24T03:18:12.960Z,68.04
2018-07-24T03:20:40.994Z,68.63
2018-07-24T03:23:09.052Z,68.81
2018-07-24T03:25:37.045Z,68.29
2018-07-24T03:28:05.012Z,68.44
2018-07-24T03:30:32.988Z,67.98
2018-07-24T03:33:02.061Z,68.25
2018-07-24T03:35:30.122Z,67.21
2018-07-24T03:37:58.101Z,67.20
2018-07-24T03:40:26.111Z,67.11
2018-07-24T03:42:54.173Z,67.06
2018-07-24T03:45:22.204Z,66.92
2018-07-24T03:47:50.204Z,66.81
2018-07-24T03:50:18.200Z,66.96
2018-07-24T03:52:46.193Z,68.65
2018-07-24T03:55:14.229Z,69.66
2018-07-24T03:57:43.264Z,68.25
2018-07-24T04:00:11.413Z,67.58
2018-07-24T04:02:39.537Z,67.95
2018-07-24T04:05:07.504Z,67.46
2018-07-24T04:07:35.496Z,67.86
2018-07-24T04:10:03.488Z,67.62
2018-07-24T04:12:31.482Z,67.94
2018-07-24T04:14:59.597Z,66.94
2018-07-24T04:17:27.604Z,67.51
2018-07-24T04:19:55.592Z,66.56
2018-07-24T04:22:23.728Z,67.32
2018-07-24T04:24:51.705Z,67.28
2018-07-24T04:27:19.689Z,68.44
2018-07-24T04:29:47.682Z,68.07
2018-07-24T04:32:15.674Z,68.02
2018-07-24T04:34:43.724Z,68.50
2018-07-24T04:37:11.732Z,67.77
2018-07-24T04:39:39.737Z,68.09
2018-07-24T04:42:07.828Z,68.67
2018-07-24T04:44:35.838Z,68.46
2018-07-24T04:47:03.861Z,68.80
2018-07-24T04:49:31.896Z,68.61
2018-07-24T04:51:59.888Z,68.04
2018-07-24T04:54:27.897Z,66.82
2018-07-24T04:56:55.923Z,67.11
2018-07-24T04:59:23.912Z,67.29
2018-07-24T05:01:51.893Z,66.62
2018-07-24T05:04:19.884Z,65.79
2018-07-24T05:06:47.949Z,65.56
2018-07-24T05:09:15.925Z,65.08
2018-07-24T05:11:44.551Z,65.37
2018-07-24T05:14:12.727Z,65.26
2018-07-24T05:16:41.537Z,64.77
2018-07-24T05:19:09.500Z,63.79
2018-07-24T05:21:37.982Z,64.22
2018-07-24T05:24:06.507Z,63.21
2018-07-24T05:26:34.532Z,63.37
2018-07-24T05:29:02.532Z,62.37
2018-07-24T05:31:30.547Z,60.57
2018-07-24T05:33:58.557Z,55.04
2018-07-24T05:36:26.576Z,48.46
2018-07-24T05:38:54.581Z,41.98
2018-07-24T05:41:22.626Z,38.87
2018-07-24T05:43:50.653Z,33.96
2018-07-24T05:46:18.677Z,32.81
2018-07-24T05:48:46.730Z,30.53
2018-07-24T05:51:14.684Z,28.44
2018-07-24T05:53:42.668Z,27.77
2018-07-24T05:56:10.712Z,26.04
2018-07-24T05:58:38.736Z,25.58
2018-07-24T06:01:06.748Z,24.37
2018-07-24T06:03:35.726Z,23.99
2018-07-24T06:06:03.709Z,23.49
2018-07-24T06:08:31.684Z,22.96
2018-07-24T06:10:59.666Z,21.56
2018-07-24T06:13:27.679Z,21.53
2018-07-24T06:15:55.660Z,21.92
2018-07-24T06:18:23.708Z,21.50
2018-07-24T06:20:51.722Z,20.67
2018-07-24T06:23:20.287Z,20.23
2018-07-24T06:25:48.268Z,20.83
2018-07-24T06:28:16.265Z,20.86
2018-07-24T06:30:44.266Z,21.00
2018-07-24T06:33:12.246Z,22.99
2018-07-24T06:35:40.229Z,23.61
2018-07-24T06:38:08.214Z,22.44
2018-07-24T06:40:36.182Z,22.64
2018-07-24T06:43:05.225Z,22.27
2018-07-24T06:45:33.276Z,22.28
2018-07-24T06:48:01.262Z,21.96
2018-07-24T06:50:29.232Z,23.54
2018-07-24T06:52:57.221Z,22.99
2018-07-24T06:55:25.396Z,21.80
2018-07-24T06:57:53.600Z,22.88
2018-07-24T07:00:21.585Z,22.93
2018-07-24T07:02:49.560Z,22.83
2018-07-24T07:05:17.556Z,23.06
2018-07-24T07:07:45.539Z,21.98
2018-07-24T07:10:13.548Z,22.69
2018-07-24T07:12:41.528Z,21.84
2018-07-24T07:15:09.774Z,23.20
2018-07-24T07:17:37.909Z,22.17
2018-07-24T07:20:05.890Z,22.43
2018-07-24T07:22:33.909Z,22.51
2018-07-24T07:25:02.074Z,22.15
2018-07-24T07:27:30.044Z,21.34
2018-07-24T07:29:58.015Z,20.45
2018-07-24T07:32:26.091Z,20.26
2018-07-24T07:34:54.021Z,20.01
2018-07-24T07:37:22.032Z,19.39
2018-07-24T07:39:50.072Z,20.30
2018-07-24T07:42:18.061Z,20.00
2018-07-24T07:44:46.045Z,20.54
2018-07-24T07:47:14.012Z,19.73
2018-07-24T07:49:42.000Z,20.78
2018-07-24T07:52:10.000Z,20.21
2018-07-24T07:54:38.025Z,20.21
2018-07-24T07:57:05.992Z,20.17
2018-07-24T07:59:34.049Z,20.67
2018-07-24T08:02:02.028Z,21.48
2018-07-24T08:04:30.010Z,21.00
2018-07-24T08:06:58.061Z,22.74
2018-07-24T08:09:26.041Z,23.92
2018-07-24T08:11:54.016Z,21.93
2018-07-24T08:14:22.111Z,23.01
2018-07-24T08:16:50.073Z,22.12
2018-07-24T08:19:18.070Z,22.75
2018-07-24T08:21:46.046Z,20.89
2018-07-24T08:24:14.137Z,21.54
2018-07-24T08:26:42.152Z,22.56
2018-07-24T08:29:10.169Z,21.26
2018-07-24T08:31:38.164Z,23.03
2018-07-24T08:34:06.546Z,24.26
2018-07-24T08:36:34.540Z,21.61
2018-07-24T08:39:02.540Z,24.72
2018-07-24T08:41:30.588Z,24.78
2018-07-24T08:43:58.610Z,25.20
2018-07-24T08:46:26.658Z,24.96
2018-07-24T08:48:54.660Z,26.09
2018-07-24T08:51:22.642Z,25.31
2018-07-24T08:53:50.969Z,27.25
2018-07-24T08:56:18.725Z,25.99
2018-07-24T08:58:46.803Z,25.31
2018-07-24T09:01:14.879Z,25.55
2018-07-24T09:03:42.927Z,26.19
2018-07-24T09:06:10.853Z,27.11
2018-07-24T09:08:38.869Z,25.96
2018-07-24T09:11:06.891Z,25.98
2018-07-24T09:13:34.868Z,25.73
2018-07-24T09:16:02.937Z,27.51
2018-07-24T09:18:30.945Z,26.47
2018-07-24T09:20:59.075Z,28.47
2018-07-24T09:23:27.032Z,28.88
2018-07-24T09:25:55.041Z,27.37
2018-07-24T09:28:23.036Z,27.35
2018-07-24T09:30:51.054Z,29.08
2018-07-24T09:33:19.096Z,28.06
2018-07-24T09:35:47.113Z,27.89
2018-07-24T09:38:15.136Z,28.56
2018-07-24T09:40:43.146Z,28.09
2018-07-24T09:43:11.123Z,28.34
2018-07-24T09:45:39.335Z,27.86
2018-07-24T09:48:07.320Z,28.98
2018-07-24T09:50:35.335Z,28.79
2018-07-24T09:53:04.116Z,29.49
2018-07-24T09:55:32.114Z,30.96
2018-07-24T09:58:00.084Z,28.03
2018-07-24T10:00:33.592Z,28.46
2018-07-24T10:03:01.701Z,29.93
2018-07-24T10:05:29.776Z,29.82
2018-07-24T10:07:57.685Z,29.82
2018-07-24T10:10:25.691Z,28.63
2018-07-24T10:12:53.775Z,27.48
2018-07-24T10:15:21.661Z,27.82
2018-07-24T10:17:49.663Z,25.59
2018-07-24T10:20:17.672Z,26.44
2018-07-24T10:22:45.685Z,25.34
2018-07-24T10:25:13.935Z,25.66
2018-07-24T10:27:42.057Z,25.79
2018-07-24T10:30:10.094Z,25.82
2018-07-24T10:32:38.216Z,28.32
2018-07-24T10:35:06.792Z,25.49
2018-07-24T10:37:34.903Z,28.10
2018-07-24T10:40:02.948Z,26.41
2018-07-24T10:42:30.927Z,25.18
2018-07-24T10:44:58.916Z,28.55
2018-07-24T10:47:26.896Z,26.22
2018-07-24T10:49:54.912Z,26.02
2018-07-24T10:52:22.902Z,26.04
2018-07-24T10:54:50.948Z,27.38
2018-07-24T10:57:18.933Z,28.69
2018-07-24T10:59:46.972Z,26.71
2018-07-24T11:02:15.000Z,27.35
2018-07-24T11:04:43.353Z,26.19
2018-07-24T11:07:11.344Z,26.96
2018-07-24T11:09:39.391Z,28.03
2018-07-24T11:12:07.473Z,27.07
2018-07-24T11:14:35.453Z,28.64
2018-07-24T11:17:03.465Z,27.22
2018-07-24T11:19:31.440Z,27.19
2018-07-24T11:21:59.460Z,27.75
2018-07-24T11:24:27.480Z,30.11
2018-07-24T11:26:55.529Z,29.92
2018-07-24T11:29:23.508Z,28.40
2018-07-24T11:31:51.606Z,27.87
2018-07-24T11:34:19.583Z,28.36
2018-07-24T11:36:47.580Z,28.11
2018-07-24T11:39:15.547Z,26.87
2018-07-24T11:41:43.636Z,26.69
2018-07-24T11:44:11.689Z,28.21
2018-07-24T11:46:40.631Z,26.61
2018-07-24T11:49:08.733Z,26.46
2018-07-24T11:51:37.860Z,26.55
2018-07-24T11:54:05.821Z,27.32
2018-07-24T11:56:33.873Z,28.00
2018-07-24T11:59:01.934Z,28.20
2018-07-24T12:01:29.904Z,25.53
2018-07-24T12:03:59.026Z,25.74
2018-07-24T12:06:27.044Z,27.35
2018-07-24T12:08:55.001Z,26.79
2018-07-24T12:11:22.984Z,25.33
2018-07-24T12:13:50.968Z,27.39
2018-07-24T12:16:19.041Z,26.12
2018-07-24T12:18:47.189Z,26.03
2018-07-24T12:21:15.452Z,29.35
2018-07-24T12:23:43.583Z,26.04
2018-07-24T12:26:11.654Z,26.11
2018-07-24T12:28:39.652Z,24.08
2018-07-24T12:31:07.706Z,25.24
2018-07-24T12:33:35.804Z,25.38
2018-07-24T12:36:03.972Z,25.35
2018-07-24T12:38:32.100Z,25.50
2018-07-24T12:41:00.198Z,25.55
2018-07-24T12:43:28.505Z,25.24
2018-07-24T12:45:56.457Z,25.12
2018-07-24T12:48:24.688Z,25.11
2018-07-24T12:50:52.817Z,24.64
2018-07-24T12:53:20.882Z,24.76
2018-07-24T12:55:49.012Z,24.02
2018-07-24T12:58:17.315Z,24.56
2018-07-24T13:00:45.529Z,22.95
2018-07-24T13:03:13.717Z,23.43
2018-07-24T13:05:41.702Z,22.38
2018-07-24T13:08:09.841Z,22.52
2018-07-24T13:10:37.881Z,22.49
2018-07-24T13:13:06.011Z,23.62
2018-07-24T13:15:34.010Z,25.06
2018-07-24T13:18:02.201Z,24.96
2018-07-24T13:20:30.185Z,24.72
2018-07-24T13:22:58.354Z,24.83
2018-07-24T13:25:26.586Z,24.67
2018-07-24T13:27:54.726Z,24.36
2018-07-24T13:30:22.799Z,24.40
2018-07-24T13:32:50.839Z,24.80
2018-07-24T13:35:18.808Z,23.23
2018-07-24T13:37:47.008Z,25.82
2018-07-24T13:40:15.327Z,21.80
2018-07-24T13:42:43.578Z,22.45
2018-07-24T13:45:12.818Z,22.31
2018-07-24T13:47:40.928Z,22.23
2018-07-24T13:50:09.117Z,23.79
2018-07-24T13:52:37.196Z,24.07
2018-07-24T13:55:05.617Z,23.50
2018-07-24T13:57:33.676Z,21.50
2018-07-24T14:00:01.880Z,21.86
2018-07-24T14:02:29.989Z,22.42
2018-07-24T14:04:58.012Z,23.01
2018-07-24T14:07:26.640Z,22.10
2018-07-24T14:09:55.051Z,24.05
2018-07-24T14:12:23.099Z,22.12
2018-07-24T14:14:51.165Z,22.56
2018-07-24T14:17:19.192Z,24.54
2018-07-24T14:19:47.204Z,22.11
2018-07-24T14:22:15.289Z,21.83
2018-07-24T14:24:43.365Z,23.14
2018-07-24T14:27:11.379Z,22.20
2018-07-24T14:29:39.616Z,23.72
2018-07-24T14:32:07.595Z,20.74
2018-07-24T14:34:35.564Z,21.67
2018-07-24T14:37:03.536Z,22.52
2018-07-24T14:39:31.517Z,21.78
2018-07-24T14:41:59.488Z,21.64
2018-07-24T14:44:27.540Z,21.14
2018-07-24T14:46:56.624Z,24.30
2018-07-24T14:49:24.600Z,21.49
2018-07-24T14:51:52.684Z,22.23
2018-07-24T14:54:20.860Z,22.22
2018-07-24T14:56:49.160Z,22.32
2018-07-24T14:59:17.186Z,21.78
2018-07-24T15:01:45.164Z,22.25
2018-07-24T15:04:13.328Z,22.28
2018-07-24T15:06:41.327Z,21.41
2018-07-24T15:09:11.056Z,21.50
2018-07-24T15:11:39.036Z,21.49
2018-07-24T15:14:07.042Z,22.33
2018-07-24T15:16:34.984Z,22.82
2018-07-24T15:19:03.021Z,22.06
2018-07-24T15:21:31.092Z,22.44
2018-07-24T15:49:54.280Z,23.08
2018-07-24T15:55:16.434Z,21.53
2018-07-24T15:57:44.526Z,21.98
2018-07-24T16:00:12.485Z,23.48
2018-07-24T16:02:42.552Z,23.50
2018-07-24T16:05:10.532Z,24.35
2018-07-24T16:07:38.526Z,22.54
2018-07-24T16:10:06.661Z,22.98
2018-07-24T16:12:34.736Z,23.60
2018-07-24T16:15:02.739Z,22.38
2018-07-24T16:17:30.738Z,21.87
2018-07-24T16:19:58.745Z,21.99
2018-07-24T16:22:26.744Z,22.69
2018-07-24T16:24:55.144Z,23.26
2018-07-24T16:27:24.185Z,23.22
2018-07-24T16:29:52.243Z,23.20
2018-07-24T16:32:20.300Z,23.49
2018-07-24T16:34:48.374Z,23.04
2018-07-24T16:37:16.421Z,23.47
2018-07-24T16:39:44.520Z,23.77
2018-07-24T16:42:12.620Z,23.63
2018-07-24T16:44:40.650Z,25.07
2018-07-24T16:47:08.752Z,23.80
2018-07-24T16:49:36.776Z,25.40
2018-07-24T16:52:04.760Z,24.45
2018-07-24T16:54:32.893Z,24.76
2018-07-24T16:57:00.921Z,25.24
2018-07-24T16:59:28.908Z,24.51
2018-07-24T17:01:56.965Z,23.85
2018-07-24T17:04:25.008Z,25.15
2018-07-24T17:06:54.057Z,25.11
2018-07-24T17:09:22.050Z,24.52
2018-07-24T17:11:50.056Z,25.36
2018-07-24T17:14:18.165Z,24.60
2018-07-24T17:16:46.141Z,24.69
2018-07-24T17:19:14.157Z,24.74
2018-07-24T17:21:42.262Z,24.68
2018-07-24T17:24:10.256Z,25.28
2018-07-24T17:26:38.380Z,25.13
2018-07-24T17:29:06.509Z,25.10
2018-07-24T17:31:34.508Z,24.38
2018-07-24T17:34:02.520Z,24.55
2018-07-24T17:36:30.613Z,24.17
2018-07-24T17:38:58.638Z,24.72
2018-07-24T17:41:26.631Z,24.40
2018-07-24T17:43:54.633Z,23.99
2018-07-24T17:46:22.637Z,24.14
2018-07-24T17:48:50.630Z,24.04
2018-07-24T17:51:18.630Z,24.19
2018-07-24T17:53:46.797Z,24.71
2018-07-24T17:56:14.812Z,25.46
2018-07-24T17:58:42.793Z,25.56
2018-07-24T18:01:11.032Z,25.35
2018-07-24T18:03:39.105Z,25.90
2018-07-24T18:06:07.242Z,25.83
2018-07-24T18:08:35.268Z,25.80
2018-07-24T18:11:03.454Z,26.18
2018-07-24T18:13:31.563Z,25.51
2018-07-24T18:15:59.568Z,26.64
2018-07-24T18:18:27.645Z,27.83
2018-07-24T18:20:55.713Z,29.05
2018-07-24T18:23:23.748Z,30.92
2018-07-24T18:25:51.768Z,31.06
2018-07-24T18:28:19.815Z,32.07
2018-07-24T18:30:47.848Z,32.75
2018-07-24T18:33:16.041Z,34.36
2018-07-24T18:35:44.133Z,33.87
2018-07-24T18:38:12.140Z,34.19
2018-07-24T18:40:40.240Z,33.94
2018-07-24T18:43:08.237Z,34.71
2018-07-24T18:45:36.360Z,34.86
2018-07-24T18:48:04.632Z,35.49
2018-07-24T18:50:32.664Z,35.71
2018-07-24T18:53:01.434Z,35.69
2018-07-24T18:55:29.516Z,37.80
2018-07-24T18:57:57.533Z,38.53
2018-07-24T19:00:25.512Z,38.29
2018-07-24T19:02:53.728Z,39.33
2018-07-24T19:05:21.755Z,39.87
2018-07-24T19:07:49.712Z,40.17
2018-07-24T19:10:17.936Z,40.87
2018-07-24T19:12:45.996Z,39.98
2018-07-24T19:15:14.206Z,40.17
2018-07-24T19:17:42.242Z,39.65
2018-07-24T19:20:10.372Z,40.27
2018-07-24T19:22:38.470Z,39.83
2018-07-24T19:25:06.440Z,39.07
2018-07-24T19:27:34.500Z,40.61
2018-07-24T19:30:02.557Z,40.88
2018-07-24T19:32:30.601Z,41.79
2018-07-24T19:34:58.686Z,41.87
2018-07-24T19:37:26.632Z,41.93
2018-07-24T19:39:54.716Z,40.88
2018-07-24T19:42:22.755Z,42.10
2018-07-24T19:44:50.934Z,40.98
2018-07-24T19:47:19.174Z,42.33
2018-07-24T19:49:47.341Z,40.87
2018-07-24T19:52:15.392Z,41.65
2018-07-24T19:54:43.660Z,40.75
2018-07-24T19:57:11.860Z,41.28
2018-07-24T19:59:41.020Z,40.17
2018-07-24T20:02:09.213Z,40.87
2018-07-24T20:04:37.727Z,40.36
2018-07-24T20:07:07.082Z,40.10
2018-07-24T20:09:35.167Z,39.09
2018-07-24T20:12:03.261Z,40.62
2018-07-24T20:14:31.420Z,39.78
2018-07-24T20:16:59.588Z,40.62
2018-07-24T20:19:27.700Z,39.84
2018-07-24T20:21:55.836Z,40.84
2018-07-24T20:24:23.876Z,40.65
2018-07-24T20:26:52.215Z,40.78
2018-07-24T20:29:20.435Z,40.81
2018-07-24T20:31:48.533Z,41.67
2018-07-24T20:34:17.715Z,41.60
2018-07-24T20:36:45.994Z,41.60
2018-07-24T20:39:14.168Z,42.17
2018-07-24T20:41:42.966Z,42.58
2018-07-24T20:44:11.153Z,41.86
2018-07-24T20:46:39.252Z,43.31
2018-07-24T20:49:07.317Z,43.37
2018-07-24T20:51:35.548Z,43.28
2018-07-24T20:54:03.773Z,42.82
2018-07-24T20:56:33.218Z,44.12
2018-07-24T20:59:01.469Z,43.37
2018-07-24T21:01:30.632Z,44.18
2018-07-24T21:03:58.759Z,44.97
2018-07-24T21:06:26.940Z,44.39
2018-07-24T21:08:55.088Z,45.22
2018-07-24T21:11:23.320Z,45.10
2018-07-24T21:13:51.354Z,45.17
2018-07-24T21:16:19.492Z,44.68
2018-07-24T21:18:47.812Z,46.07
2018-07-24T21:21:16.076Z,46.51
2018-07-24T21:23:44.209Z,46.80
2018-07-24T21:26:12.552Z,46.68
2018-07-24T21:28:40.739Z,47.62
2018-07-24T21:31:08.908Z,47.51
2018-07-24T21:33:38.992Z,47.04
2018-07-24T21:36:07.170Z,46.45
2018-07-24T21:38:35.537Z,47.20
2018-07-24T21:41:03.652Z,47.49
2018-07-24T21:43:31.913Z,48.74
2018-07-24T21:46:00.211Z,48.68
2018-07-24T21:48:28.248Z,48.42
2018-07-24T21:50:56.465Z,48.19
2018-07-24T21:53:25.470Z,48.23
2018-07-24T21:55:54.597Z,48.80
2018-07-24T21:58:22.712Z,49.76
2018-07-24T22:00:56.173Z,48.91
2018-07-24T22:03:24.420Z,48.45
2018-07-24T22:05:52.670Z,48.31
2018-07-24T22:08:20.809Z,49.72
2018-07-24T22:10:48.954Z,48.59
2018-07-24T22:13:17.072Z,48.80
2018-07-24T22:15:45.265Z,49.10
2018-07-24T22:18:13.414Z,49.86
2018-07-24T22:20:41.549Z,48.88
2018-07-24T22:23:09.690Z,49.12
2018-07-24T22:25:37.785Z,49.32
2018-07-24T22:28:05.936Z,49.81
2018-07-24T22:30:33.969Z,50.50
2018-07-24T22:33:03.028Z,51.07
2018-07-24T22:35:31.062Z,50.63
2018-07-24T22:38:00.124Z,51.56
2018-07-24T22:40:28.104Z,51.02
2018-07-24T22:42:56.117Z,51.30
2018-07-24T22:45:24.131Z,50.85
2018-07-24T22:47:52.180Z,51.95
2018-07-24T22:50:20.313Z,51.85
2018-07-24T22:52:49.348Z,51.42
2018-07-24T22:55:17.428Z,52.88
2018-07-24T22:57:46.688Z,53.14
2018-07-24T23:00:15.850Z,52.57
2018-07-24T23:02:43.877Z,52.32
2018-07-24T23:05:11.869Z,52.73
2018-07-24T23:07:39.940Z,52.37
2018-07-24T23:10:08.001Z,53.52
2018-07-24T23:12:35.988Z,53.14
2018-07-24T23:15:04.652Z,53.03
2018-07-24T23:17:32.742Z,52.50
2018-07-24T23:20:00.820Z,53.40
2018-07-24T23:22:28.874Z,52.87
2018-07-24T23:24:57.036Z,52.55
2018-07-24T23:27:25.027Z,53.36
2018-07-24T23:29:53.112Z,53.59
2018-07-24T23:32:21.144Z,53.87
2018-07-24T23:34:49.144Z,53.70
2018-07-24T23:37:17.159Z,53.83
2018-07-24T23:39:45.284Z,53.91
2018-07-24T23:42:13.429Z,53.94
2018-07-24T23:44:41.444Z,54.40
2018-07-24T23:47:09.470Z,53.77
2018-07-24T23:49:38.504Z,54.56
2018-07-24T23:52:06.683Z,53.09
2018-07-24T23:54:34.696Z,52.93
2018-07-24T23:57:02.702Z,53.02
2018-07-24T23:59:30.692Z,52.76
